Time;durP1;ratioP1;P1;durP2;ratioP2;P2;SDS_P1;SDS_P2;PMS_P1;PMS_P2;Temp;Humidity;BMP_temperature;BMP_pressure;BME280_temperature;BME280_humidity;BME280_pressure;Samples;Min_cycle;Max_cycle;Signal;HPM_P1;HPM_P2
2022/04/14 00:01:20;;;;;;;2.72;1.60;;;;;;;18.89;47.65;101981.00;5136523;27;20035;-60
2022/04/14 00:03:45;;;;;;;1.70;1.60;;;;;;;18.88;47.71;101965.81;5146452;27;20034;-60
2022/04/14 00:06:11;;;;;;;1.58;1.38;;;;;;;18.87;47.94;101964.97;5145810;27;20030;-60
2022/04/14 00:08:36;;;;;;;2.08;1.55;;;;;;;18.87;47.81;101961.44;5145956;27;20023;-60
2022/04/14 00:11:01;;;;;;;2.10;1.80;;;;;;;18.87;47.77;101956.06;5110466;27;20023;-60
2022/04/14 00:13:26;;;;;;;1.60;1.42;;;;;;;18.86;47.59;101957.91;5145642;27;20030;-59
2022/04/14 00:15:52;;;;;;;2.05;1.75;;;;;;;18.86;47.75;101957.91;5145433;27;20054;-59
2022/04/14 00:18:17;;;;;;;1.33;1.23;;;;;;;18.85;47.69;101958.88;5146207;27;20031;-60
2022/04/14 00:20:42;;;;;;;1.50;1.40;;;;;;;18.85;47.66;101949.94;5145677;27;20090;-60
2022/04/14 00:23:08;;;;;;;2.08;1.60;;;;;;;18.84;47.75;101949.09;5145470;27;20032;-60
2022/04/14 00:25:33;;;;;;;2.08;1.77;;;;;;;18.83;47.66;101939.31;5127229;27;20091;-59
2022/04/14 00:27:58;;;;;;;1.98;1.60;;;;;;;18.84;47.62;101941.00;5145367;27;20193;-60
2022/04/14 00:30:24;;;;;;;1.92;1.80;;;;;;;18.84;47.92;101943.72;5145573;27;20035;-60
2022/04/14 00:32:49;;;;;;;1.90;1.67;;;;;;;18.84;47.54;101938.31;5110308;27;20034;-60
2022/04/14 00:35:15;;;;;;;1.95;1.60;;;;;;;18.83;47.58;101941.16;5127185;27;20057;-60
2022/04/14 00:37:40;;;;;;;1.55;1.45;;;;;;;18.83;47.74;101938.47;5145451;27;20086;-60
2022/04/14 00:40:06;;;;;;;2.63;1.83;;;;;;;18.82;47.62;101932.22;5125957;27;20130;-60
2022/04/14 00:42:31;;;;;;;1.98;1.42;;;;;;;18.83;47.87;101935.78;5145303;27;20045;-60
2022/04/14 00:44:57;;;;;;;1.60;1.42;;;;;;;18.82;47.57;101934.94;5145205;27;20054;-60
2022/04/14 00:47:22;;;;;;;2.03;1.83;;;;;;;18.82;47.67;101937.63;5145011;27;20114;-60
2022/04/14 00:49:48;;;;;;;2.35;1.80;;;;;;;18.81;47.44;101937.75;5145434;27;20041;-60
2022/04/14 00:52:14;;;;;;;2.17;1.98;;;;;;;18.79;47.54;101937.06;5126729;27;20019;-60
2022/04/14 00:54:39;;;;;;;2.63;1.95;;;;;;;18.81;47.56;101937.75;5145024;27;20058;-60
2022/04/14 00:57:05;;;;;;;2.28;1.77;;;;;;;18.80;47.59;101936.06;5143448;27;20027;-60
2022/04/14 00:59:30;;;;;;;3.15;2.30;;;;;;;18.78;47.47;101938.91;5126725;27;20030;-59
2022/04/14 01:01:56;;;;;;;2.33;2.13;;;;;;;18.80;47.49;101942.28;5109164;27;20061;-60
2022/04/14 01:04:21;;;;;;;3.13;2.50;;;;;;;18.80;47.31;101938.75;5145026;27;20341;-59
2022/04/14 01:06:47;;;;;;;2.75;2.00;;;;;;;18.79;47.28;101937.06;5144773;27;20030;-60
2022/04/14 01:09:18;;;;;;;2.53;2.17;;;;;;;18.79;47.39;101937.91;5144797;27;20441;-59
2022/04/14 01:11:51;;;;;;;4.47;2.22;;;;;;;18.75;47.40;101931.09;5144633;27;20019;-59
2022/04/14 01:14:27;;;;;;;2.58;2.28;;;;;;;18.77;47.52;101937.19;5144988;27;20031;-60
2022/04/14 01:16:54;;;;;;;2.70;2.20;;;;;;;18.78;47.39;101943.44;5123882;28;20063;-59
2022/04/14 01:19:19;;;;;;;2.55;2.17;;;;;;;18.77;47.39;101933.63;5124330;28;20019;-60
2022/04/14 01:21:49;;;;;;;2.00;1.80;;;;;;;18.76;47.33;101932.78;5124051;28;20229;-60
2022/04/14 01:24:14;;;;;;;2.95;2.30;;;;;;;18.77;47.59;101933.63;5106269;28;20019;-60
2022/04/14 01:26:40;;;;;;;2.78;2.10;;;;;;;18.76;47.44;101930.09;5123513;28;20043;-59
2022/04/14 01:29:05;;;;;;;4.03;2.15;;;;;;;18.75;47.45;101931.09;5105775;28;20388;-57
2022/04/14 01:31:31;;;;;;;2.67;2.28;;;;;;;18.75;47.55;101922.16;5105512;28;20027;-60
2022/04/14 01:33:56;;;;;;;3.22;2.67;;;;;;;18.75;47.37;101927.56;5124353;28;20027;-59
2022/04/14 01:36:22;;;;;;;3.08;2.58;;;;;;;18.75;47.58;101927.56;5123987;28;20027;-60
2022/04/14 01:38:47;;;;;;;2.72;2.20;;;;;;;18.73;47.38;101925.88;5143441;27;20142;-60
2022/04/14 01:41:12;;;;;;;2.60;2.13;;;;;;;18.73;47.21;101927.69;5144588;27;20041;-59
2022/04/14 01:43:37;;;;;;;2.65;2.15;;;;;;;18.72;47.20;101929.53;5144370;27;20042;-59
2022/04/14 01:46:08;;;;;;;2.80;2.42;;;;;;;18.72;47.22;101939.44;5143742;27;20061;-59
2022/04/14 01:48:33;;;;;;;2.63;2.30;;;;;;;18.73;47.31;101935.75;5144385;27;20026;-60
2022/04/14 01:50:58;;;;;;;2.10;1.90;;;;;;;18.72;47.15;101934.91;5144225;27;20102;-59
2022/04/14 01:53:24;;;;;;;2.78;2.33;;;;;;;18.71;47.17;101941.31;5144664;27;20462;-60
2022/04/14 01:55:49;;;;;;;2.35;1.92;;;;;;;18.70;47.42;101936.06;5144196;28;20055;-60
2022/04/14 01:58:14;;;;;;;2.55;2.20;;;;;;;18.70;47.16;101941.47;5143772;28;20031;-60
2022/04/14 02:00:39;;;;;;;2.22;2.03;;;;;;;18.69;47.43;101939.69;5125362;28;20030;-60
2022/04/14 02:03:05;;;;;;;2.60;2.35;;;;;;;18.69;47.33;101939.69;5124727;28;20027;-60
2022/04/14 02:05:30;;;;;;;2.00;1.80;;;;;;;18.69;47.51;101942.38;5123703;28;20050;-60
2022/04/14 02:07:55;;;;;;;2.78;2.22;;;;;;;18.68;47.04;101944.25;5125054;28;20083;-60
2022/04/14 02:10:20;;;;;;;2.85;2.22;;;;;;;18.68;47.11;101944.25;5145661;27;20046;-60
2022/04/14 02:12:45;;;;;;;3.00;2.42;;;;;;;18.68;47.08;101943.38;5148256;27;20019;-60
2022/04/14 02:15:12;;;;;;;1.70;1.58;;;;;;;18.63;47.20;101941.13;5147958;27;20023;-60
2022/04/14 02:17:38;;;;;;;2.67;2.47;;;;;;;18.67;47.13;101952.47;5148359;27;20030;-60
2022/04/14 02:20:03;;;;;;;2.33;2.10;;;;;;;18.66;47.40;101951.63;5148024;27;20035;-60
2022/04/14 02:22:28;;;;;;;2.47;2.15;;;;;;;18.64;47.08;101941.97;5148352;27;20027;-60
2022/04/14 02:24:53;;;;;;;2.53;2.17;;;;;;;18.67;47.34;101955.16;5148404;27;20152;-60
2022/04/14 02:27:21;;;;;;;2.20;1.88;;;;;;;18.65;46.99;101952.63;5147546;27;20130;-60
2022/04/14 02:29:46;;;;;;;2.22;2.00;;;;;;;18.66;47.24;101950.78;5128601;27;20027;-60
2022/04/14 02:32:11;;;;;;;2.75;1.85;;;;;;;18.65;47.22;101957.16;5147699;27;20740;-61
2022/04/14 02:34:36;;;;;;;2.30;2.00;;;;;;;18.64;47.17;101960.81;5148104;27;20114;-60
2022/04/14 02:37:01;;;;;;;1.98;1.75;;;;;;;18.64;47.01;101955.44;5147884;27;20027;-60
2022/04/14 02:39:27;;;;;;;2.45;2.10;;;;;;;18.63;47.04;101957.28;5129194;27;20043;-60
2022/04/14 02:41:52;;;;;;;2.00;1.80;;;;;;;18.63;47.15;101949.19;5147103;27;20027;-60
2022/04/14 02:44:17;;;;;;;2.03;1.83;;;;;;;18.63;47.11;101945.66;5147916;27;20031;-60
2022/04/14 02:46:42;;;;;;;2.08;1.88;;;;;;;18.61;47.27;101945.81;5146986;27;20031;-59
2022/04/14 02:49:08;;;;;;;2.00;1.70;;;;;;;18.62;47.00;101949.34;5147829;27;20034;-59
2022/04/14 02:51:33;;;;;;;1.85;1.60;;;;;;;18.62;46.84;101957.44;5147580;27;20029;-60
2022/04/14 02:53:58;;;;;;;2.10;1.70;;;;;;;18.62;47.05;101955.59;5147802;27;20506;-59
2022/04/14 02:56:23;;;;;;;2.10;1.70;;;;;;;18.61;46.99;101955.75;5147330;27;20076;-59
2022/04/14 02:58:48;;;;;;;2.40;2.13;;;;;;;18.61;46.86;101955.75;5147045;27;20099;-60
2022/04/14 03:01:14;;;;;;;2.42;1.90;;;;;;;18.61;47.10;101961.13;5147050;27;20456;-60
2022/04/14 03:03:40;;;;;;;1.80;1.67;;;;;;;18.52;46.85;101953.88;5129363;27;20495;-60
2022/04/14 03:06:05;;;;;;;2.08;1.88;;;;;;;18.59;47.05;101963.94;5127709;27;20027;-60
2022/04/14 03:08:30;;;;;;;2.00;1.80;;;;;;;18.57;46.91;101962.41;5147129;27;20030;-60
2022/04/14 03:10:56;;;;;;;2.42;2.08;;;;;;;18.59;47.08;101960.41;5147439;27;20031;-60
2022/04/14 03:13:21;;;;;;;2.20;1.60;;;;;;;18.56;46.82;101956.13;5146892;27;20096;-60
2022/04/14 03:15:49;;;;;;;2.50;2.00;;;;;;;18.58;47.00;101959.56;5146838;27;20011;-59
2022/04/14 03:18:14;;;;;;;1.90;1.80;;;;;;;18.58;46.90;101956.00;5147324;27;20027;-60
2022/04/14 03:20:40;;;;;;;1.90;1.70;;;;;;;18.57;46.75;101957.00;5127528;27;20062;-60
2022/04/14 03:23:06;;;;;;;1.85;1.63;;;;;;;18.57;46.85;101954.31;5147188;27;20027;-60
2022/04/14 03:25:31;;;;;;;2.15;1.63;;;;;;;18.56;46.87;101958.84;5146925;27;20099;-60
2022/04/14 03:27:56;;;;;;;2.25;1.98;;;;;;;18.55;46.66;101953.59;5146396;27;20031;-59
2022/04/14 03:30:22;;;;;;;1.95;1.75;;;;;;;18.55;46.74;101959.84;5146717;27;20027;-60
2022/04/14 03:32:47;;;;;;;2.13;1.70;;;;;;;18.54;46.97;101951.91;5147120;27;20122;-60
2022/04/14 03:35:13;;;;;;;1.70;1.60;;;;;;;18.55;46.87;101951.75;5128605;27;20036;-60
2022/04/14 03:37:39;;;;;;;2.03;1.70;;;;;;;18.55;46.93;101948.22;5146704;27;20031;-60
2022/04/14 03:40:06;;;;;;;1.70;1.60;;;;;;;18.56;46.63;101957.97;5146517;27;20051;-60
2022/04/14 03:42:31;;;;;;;2.00;1.70;;;;;;;18.53;46.71;101955.59;5146275;27;20118;-60
2022/04/14 03:44:58;;;;;;;3.03;1.95;;;;;;;18.53;46.59;101955.59;5146427;27;20048;-61
2022/04/14 03:47:24;;;;;;;1.77;1.60;;;;;;;18.52;46.49;101948.47;5146051;27;20025;-60
2022/04/14 03:49:49;;;;;;;1.60;1.50;;;;;;;18.51;46.69;101947.63;5128423;27;20387;-60
2022/04/14 03:52:14;;;;;;;1.80;1.60;;;;;;;18.52;46.48;101952.06;5127862;27;20042;-60
2022/04/14 03:54:39;;;;;;;2.30;1.80;;;;;;;18.53;46.45;101950.22;5128177;27;20027;-60
2022/04/14 03:57:05;;;;;;;2.22;1.88;;;;;;;18.49;46.60;101950.47;5127565;27;20026;-60
2022/04/14 03:59:30;;;;;;;2.30;1.90;;;;;;;18.50;46.57;101945.94;5146590;27;20046;-60
2022/04/14 04:01:55;;;;;;;2.25;2.05;;;;;;;18.51;46.82;101944.09;5146111;27;20034;-60
2022/04/14 04:04:20;;;;;;;1.90;1.70;;;;;;;18.50;46.82;101954.03;5146427;27;20050;-60
2022/04/14 04:06:46;;;;;;;2.47;2.17;;;;;;;18.49;46.58;101945.09;5145658;27;20031;-60
2022/04/14 04:09:12;;;;;;;1.92;1.70;;;;;;;18.49;46.73;101947.78;5146387;27;20024;-59
2022/04/14 04:11:38;;;;;;;2.00;1.80;;;;;;;18.49;46.54;101957.72;5146079;27;20022;-60
2022/04/14 04:14:03;;;;;;;1.80;1.70;;;;;;;18.48;46.58;101959.56;5146343;27;20027;-59
2022/04/14 04:16:28;;;;;;;2.10;1.90;;;;;;;18.45;46.73;101951.75;5145715;27;20019;-61
2022/04/14 04:18:53;;;;;;;1.85;1.67;;;;;;;18.46;46.47;101958.84;5146235;27;20031;-61
2022/04/14 04:21:19;;;;;;;2.05;1.80;;;;;;;18.47;46.55;101960.53;5145796;27;20258;-60
2022/04/14 04:23:44;;;;;;;2.08;1.60;;;;;;;18.47;46.61;101962.38;5146231;27;20643;-60
2022/04/14 04:26:09;;;;;;;2.05;1.55;;;;;;;18.46;46.47;101963.38;5145640;27;20051;-60
2022/04/14 04:28:34;;;;;;;1.73;1.63;;;;;;;18.46;46.27;101968.75;5145606;27;20123;-61
2022/04/14 04:31:00;;;;;;;2.25;1.98;;;;;;;18.45;46.47;101962.53;5145248;27;20023;-61
2022/04/14 04:33:25;;;;;;;2.45;1.80;;;;;;;18.46;46.26;101966.91;5145253;27;20051;-62
2022/04/14 04:35:51;;;;;;;2.88;1.95;;;;;;;18.47;46.48;101962.38;5144309;27;20023;-61
2022/04/14 04:38:16;;;;;;;2.35;1.73;;;;;;;18.45;46.30;101967.06;5143865;27;20120;-61
2022/04/14 04:40:42;;;;;;;2.63;1.90;;;;;;;18.45;46.65;101973.28;5124868;28;20361;-61
2022/04/14 04:43:08;;;;;;;2.00;1.80;;;;;;;18.47;46.48;101970.44;5114701;27;20026;-57
2022/04/14 04:45:34;;;;;;;3.15;2.60;;;;;;;18.47;46.28;101976.69;5144290;27;20400;-62
2022/04/14 04:47:59;;;;;;;2.30;2.10;;;;;;;18.47;46.27;101984.75;5144888;27;20076;-62
2022/04/14 04:50:24;;;;;;;2.55;2.35;;;;;;;18.46;46.51;101982.22;5145351;27;20054;-61
2022/04/14 04:52:49;;;;;;;2.50;2.13;;;;;;;18.47;46.45;101973.16;5135939;27;20055;-61
2022/04/14 04:55:15;;;;;;;2.38;2.17;;;;;;;18.46;46.32;101985.75;5127198;27;20059;-61
2022/04/14 04:57:40;;;;;;;2.55;2.00;;;;;;;18.47;46.50;101989.31;5144281;27;20023;-61
2022/04/14 05:00:05;;;;;;;2.40;2.20;;;;;;;18.46;46.71;101984.91;5144081;27;20027;-62
2022/04/14 05:02:31;;;;;;;2.60;2.30;;;;;;;18.46;46.61;101983.06;5123039;27;20051;-61
2022/04/14 05:04:56;;;;;;;2.95;2.47;;;;;;;18.44;46.61;101984.22;5143895;27;20050;-62
2022/04/14 05:07:21;;;;;;;2.90;2.35;;;;;;;18.46;46.35;101987.59;5140059;27;20396;-59
2022/04/14 05:09:46;;;;;;;2.45;2.15;;;;;;;18.44;46.51;101981.53;5141069;27;20713;-58
2022/04/14 05:12:12;;;;;;;3.00;2.30;;;;;;;18.45;46.54;101986.75;5123648;28;20098;-58
2022/04/14 05:14:37;;;;;;;2.15;1.95;;;;;;;18.45;46.75;101981.38;5124163;27;20027;-58
2022/04/14 05:17:02;;;;;;;2.75;2.20;;;;;;;18.47;46.68;101989.31;5123650;28;20069;-59
2022/04/14 05:19:27;;;;;;;2.65;2.38;;;;;;;18.46;46.65;101988.44;5124063;28;20072;-61
2022/04/14 05:21:53;;;;;;;2.85;2.50;;;;;;;18.46;46.58;101996.53;5122680;27;20117;-61
2022/04/14 05:24:18;;;;;;;3.13;2.78;;;;;;;18.45;46.45;102002.91;5138232;27;20183;-60
2022/04/14 05:26:43;;;;;;;3.13;2.75;;;;;;;18.45;46.30;102007.47;5119443;27;20043;-60
2022/04/14 05:29:09;;;;;;;2.63;2.35;;;;;;;18.43;46.83;102007.56;5140414;27;20095;-62
2022/04/14 05:31:34;;;;;;;3.60;2.90;;;;;;;18.45;46.86;102011.00;5141090;27;20019;-61
2022/04/14 05:34:00;;;;;;;3.00;2.58;;;;;;;18.44;46.59;102012.00;5137994;27;20037;-61
2022/04/14 05:36:25;;;;;;;2.67;2.28;;;;;;;18.44;46.76;102006.59;5140034;27;20750;-62
2022/04/14 05:38:50;;;;;;;3.20;2.28;;;;;;;18.45;46.55;102016.38;5137830;27;20050;-61
2022/04/14 05:41:15;;;;;;;3.15;2.38;;;;;;;18.46;46.54;102011.84;5140015;27;20075;-62
2022/04/14 05:43:41;;;;;;;2.80;2.50;;;;;;;18.46;46.79;102012.69;5140962;27;20090;-62
2022/04/14 05:46:06;;;;;;;2.97;2.45;;;;;;;18.45;46.83;102016.38;5141361;27;20055;-61
2022/04/14 05:48:31;;;;;;;2.33;2.00;;;;;;;18.45;46.87;102016.38;5140820;27;20062;-60
2022/04/14 05:50:56;;;;;;;2.30;2.00;;;;;;;18.45;46.73;102013.69;5141589;27;20023;-61
2022/04/14 05:53:26;;;;;;;2.42;1.92;;;;;;;18.47;46.83;102011.69;5140653;27;20086;-62
2022/04/14 05:55:52;;;;;;;2.58;2.20;;;;;;;18.43;46.68;102006.72;5117696;28;20043;-62
2022/04/14 05:58:17;;;;;;;2.58;2.17;;;;;;;18.47;46.92;102018.94;5140158;28;20050;-60
2022/04/14 06:00:42;;;;;;;3.50;2.78;;;;;;;18.47;46.67;102016.22;5139701;28;20027;-60
2022/04/14 06:03:08;;;;;;;2.10;1.80;;;;;;;18.46;46.74;102007.31;5141942;28;20042;-61
2022/04/14 06:05:33;;;;;;;2.60;2.13;;;;;;;18.45;46.73;102013.69;5142545;28;20119;-62
2022/04/14 06:07:59;;;;;;;2.40;2.20;;;;;;;18.46;46.94;102017.22;5143300;28;20042;-62
2022/04/14 06:10:25;;;;;;;3.35;2.70;;;;;;;18.45;47.25;102018.22;5143400;28;20185;-62
2022/04/14 06:12:51;;;;;;;3.20;2.60;;;;;;;18.46;47.03;102030.69;5142707;28;20379;-62
2022/04/14 06:15:17;;;;;;;2.22;2.03;;;;;;;18.45;47.10;102024.47;5131297;28;20019;-61
2022/04/14 06:17:42;;;;;;;3.83;2.58;;;;;;;18.45;47.27;102023.63;5122827;28;20427;-62
2022/04/14 06:20:09;;;;;;;2.80;2.40;;;;;;;18.47;47.24;102021.63;5142979;28;20023;-62
2022/04/14 06:22:41;;;;;;;3.17;2.53;;;;;;;18.47;46.99;102024.31;5140524;28;20030;-62
2022/04/14 06:25:12;;;;;;;2.90;2.60;;;;;;;18.46;47.37;102030.69;5143887;28;20020;-62
2022/04/14 06:27:44;;;;;;;3.35;3.05;;;;;;;18.47;47.33;102035.94;5126020;28;20023;-62
2022/04/14 06:30:12;;;;;;;2.80;2.40;;;;;;;18.48;47.12;102036.81;5144173;28;20027;-62
2022/04/14 06:32:37;;;;;;;3.25;2.67;;;;;;;18.48;47.31;102032.28;5143567;28;20058;-62
2022/04/14 06:35:07;;;;;;;3.05;2.75;;;;;;;18.49;47.32;102043.88;5143794;28;20035;-62
2022/04/14 06:37:35;;;;;;;4.80;3.20;;;;;;;18.47;47.35;102041.31;5143666;28;20143;-62
2022/04/14 06:40:02;;;;;;;3.90;2.75;;;;;;;18.49;47.35;102046.59;5143361;28;20104;-62
2022/04/14 06:42:27;;;;;;;3.58;2.90;;;;;;;18.49;47.06;102041.19;5125015;28;20114;-62
2022/04/14 06:45:00;;;;;;;3.60;2.60;;;;;;;18.49;47.52;102038.50;5143806;28;20053;-62
2022/04/14 06:47:26;;;;;;;5.25;3.25;;;;;;;18.51;47.15;102041.06;5122934;28;20047;-63
2022/04/14 06:49:51;;;;;;;4.15;3.42;;;;;;;18.51;47.38;102041.06;5123429;28;20040;-62
2022/04/14 06:52:17;;;;;;;3.47;2.97;;;;;;;18.52;47.20;102051.69;5139330;28;20027;-62
2022/04/14 06:54:43;;;;;;;3.63;3.08;;;;;;;18.46;47.10;102033.38;5146235;27;20528;-62
2022/04/14 06:57:08;;;;;;;3.53;2.78;;;;;;;18.55;47.12;102046.00;5147046;27;20027;-62
2022/04/14 06:59:33;;;;;;;4.18;3.20;;;;;;;18.57;47.31;102048.59;5128776;27;20087;-62
2022/04/14 07:01:58;;;;;;;3.25;2.95;;;;;;;18.57;46.95;102046.75;5146972;27;20035;-62
2022/04/14 07:04:23;;;;;;;3.50;2.92;;;;;;;18.58;47.00;102042.22;5147471;27;20167;-62
2022/04/14 07:06:49;;;;;;;3.20;2.50;;;;;;;18.59;46.82;102047.44;5146952;27;20444;-62
2022/04/14 07:09:14;;;;;;;3.10;2.70;;;;;;;18.60;46.77;102042.91;5147494;27;20030;-62
2022/04/14 07:11:39;;;;;;;4.05;3.13;;;;;;;18.60;46.99;102041.06;5146375;27;20034;-62
2022/04/14 07:14:04;;;;;;;4.32;2.85;;;;;;;18.62;46.78;102040.94;5147187;27;20090;-63
2022/04/14 07:16:30;;;;;;;3.40;2.67;;;;;;;18.63;47.04;102045.34;5146837;27;20113;-62
2022/04/14 07:18:55;;;;;;;2.70;2.50;;;;;;;18.62;46.72;102038.25;5147327;27;20031;-63
2022/04/14 07:21:20;;;;;;;2.15;1.95;;;;;;;18.64;46.67;102037.09;5146913;27;20023;-63
2022/04/14 07:23:45;;;;;;;2.67;2.30;;;;;;;18.65;46.70;102040.66;5147209;27;20083;-63
2022/04/14 07:26:11;;;;;;;2.42;2.22;;;;;;;18.65;46.67;102044.22;5146903;27;20106;-62
2022/04/14 07:28:36;;;;;;;3.03;2.47;;;;;;;18.64;46.71;102047.88;5146563;27;20038;-59
2022/04/14 07:31:02;;;;;;;2.80;2.30;;;;;;;18.64;46.90;102047.03;5146595;27;20032;-59
2022/04/14 07:33:27;;;;;;;2.70;2.20;;;;;;;18.66;46.58;102047.75;5147240;27;20019;-59
2022/04/14 07:35:52;;;;;;;2.85;2.50;;;;;;;18.65;46.89;102046.06;5146127;27;20018;-58
2022/04/14 07:38:18;;;;;;;3.08;2.53;;;;;;;18.67;46.61;102053.00;5128037;27;20117;-59
2022/04/14 07:40:43;;;;;;;3.50;2.25;;;;;;;18.66;46.94;102051.28;5128278;27;20054;-59
2022/04/14 07:43:09;;;;;;;3.33;2.75;;;;;;;18.68;46.87;102053.84;5146538;27;20026;-59
2022/04/14 07:45:34;;;;;;;2.53;2.33;;;;;;;18.68;46.87;102057.38;5146108;27;20027;-58
2022/04/14 07:48:00;;;;;;;3.38;2.47;;;;;;;18.68;46.65;102054.69;5146697;27;20035;-59
2022/04/14 07:50:25;;;;;;;3.30;2.50;;;;;;;18.68;46.64;102056.53;5146719;27;20382;-59
2022/04/14 07:52:55;;;;;;;3.38;2.65;;;;;;;18.69;46.90;102052.84;5146530;27;20034;-59
2022/04/14 07:55:31;;;;;;;3.13;2.83;;;;;;;18.70;46.81;102070.75;5144940;27;20026;-59
2022/04/14 07:58:00;;;;;;;3.75;2.55;;;;;;;18.68;46.90;102078.94;5145943;27;20052;-59
2022/04/14 08:00:26;;;;;;;2.60;2.40;;;;;;;18.70;46.78;102076.16;5146401;27;20177;-59
2022/04/14 08:02:54;;;;;;;3.08;2.20;;;;;;;18.69;46.83;102075.31;5146063;27;20492;-59
2022/04/14 08:05:34;;;;;;;2.60;2.13;;;;;;;18.72;46.72;102082.22;5142992;27;20023;-57
2022/04/14 08:08:02;;;;;;;3.08;2.50;;;;;;;18.71;46.82;102083.22;5128927;27;20028;-59
2022/04/14 08:10:27;;;;;;;3.50;2.88;;;;;;;18.72;47.08;102080.38;5125677;28;20024;-59
2022/04/14 08:12:53;;;;;;;3.20;2.63;;;;;;;18.69;47.10;102075.31;5124962;28;20514;-59
2022/04/14 08:15:18;;;;;;;3.35;3.05;;;;;;;18.73;47.11;102086.63;5125351;28;20023;-59
2022/04/14 08:17:44;;;;;;;3.15;2.60;;;;;;;18.72;47.18;102088.47;5124734;28;20730;-59
2022/04/14 08:20:11;;;;;;;4.40;3.15;;;;;;;18.71;47.11;102077.84;5125516;28;20028;-59
2022/04/14 08:22:52;;;;;;;3.58;2.63;;;;;;;18.73;47.44;102078.53;5125216;28;20084;-60
2022/04/14 08:25:20;;;;;;;3.72;2.63;;;;;;;18.71;47.12;102080.53;5125092;28;20019;-59
2022/04/14 08:27:47;;;;;;;2.90;2.13;;;;;;;18.69;47.39;102080.69;5124631;28;20027;-60
2022/04/14 08:30:12;;;;;;;4.95;2.90;;;;;;;18.68;47.34;102083.47;5125379;28;20077;-59
2022/04/14 08:32:38;;;;;;;3.67;2.45;;;;;;;18.68;47.36;102084.31;5121397;27;20054;-61
2022/04/14 08:35:04;;;;;;;3.47;2.83;;;;;;;18.68;47.34;102087.00;5140490;27;20118;-62
2022/04/14 08:37:29;;;;;;;3.05;2.05;;;;;;;18.67;47.37;102085.31;5142407;27;20053;-62
2022/04/14 08:39:54;;;;;;;2.97;2.33;;;;;;;18.68;47.33;102087.00;5144489;27;20464;-64
2022/04/14 08:42:26;;;;;;;3.20;2.40;;;;;;;18.69;47.43;102083.38;5145147;27;20035;-64
2022/04/14 08:44:57;;;;;;;2.50;2.08;;;;;;;18.70;47.36;102077.00;5126931;27;20042;-64
2022/04/14 08:47:24;;;;;;;4.18;2.72;;;;;;;18.71;47.19;102078.69;5124569;28;20030;-64
2022/04/14 08:49:50;;;;;;;3.72;2.50;;;;;;;18.73;47.24;102076.72;5106669;28;20034;-64
2022/04/14 08:52:17;;;;;;;2.40;2.10;;;;;;;18.75;47.40;102076.56;5106559;28;20421;-64
2022/04/14 08:54:43;;;;;;;3.47;2.40;;;;;;;18.76;47.45;102075.59;5115648;27;20023;-62
2022/04/14 08:57:13;;;;;;;2.72;2.40;;;;;;;18.79;47.07;102079.84;5143512;27;20026;-65
2022/04/14 08:59:38;;;;;;;;;;;;;;;18.74;47.59;102074.88;5127541;27;20515;-65
2022/04/14 09:02:04;;;;;;;3.92;2.40;;;;;;;18.77;47.24;102076.44;5126498;27;19911;-64
2022/04/14 09:04:29;;;;;;;4.28;2.78;;;;;;;18.78;47.64;102075.47;5144883;27;20056;-64
2022/04/14 09:06:55;;;;;;;3.25;2.50;;;;;;;18.79;47.23;102071.78;5125151;27;20091;-63
2022/04/14 09:09:20;;;;;;;2.95;2.20;;;;;;;18.80;47.69;102073.47;5126756;27;20053;-63
2022/04/14 09:11:45;;;;;;;4.05;2.72;;;;;;;18.80;47.46;102065.38;5144270;27;20035;-64
2022/04/14 09:14:11;;;;;;;2.80;2.22;;;;;;;18.81;47.68;102067.06;5144536;27;20031;-63
2022/04/14 09:16:36;;;;;;;2.97;1.95;;;;;;;18.81;47.44;102070.63;5144255;27;20027;-65
2022/04/14 09:19:02;;;;;;;3.95;2.25;;;;;;;18.81;47.48;102062.53;5144337;27;20082;-64
2022/04/14 09:21:28;;;;;;;2.83;2.38;;;;;;;18.83;47.69;102070.50;5125508;27;20433;-58
2022/04/14 09:23:53;;;;;;;3.70;2.05;;;;;;;18.82;47.67;102064.25;5144656;27;20027;-58
2022/04/14 09:26:23;;;;;;;4.13;2.40;;;;;;;18.82;47.50;102068.78;5139228;27;20807;-59
2022/04/14 09:29:10;;;;;;;2.72;2.10;;;;;;;18.85;47.78;102060.41;5114462;27;20059;-59
2022/04/14 09:31:49;;;;;;;3.13;2.08;;;;;;;18.86;47.74;102062.13;5144352;27;20579;-60
2022/04/14 09:34:19;;;;;;;;;;;;;;;18.82;48.02;102053.50;5144989;27;20027;-58
2022/04/14 09:37:07;;;;;;;3.42;2.45;;;;;;;18.85;47.94;102053.19;5126309;27;19911;-59
2022/04/14 09:40:08;;;;;;;3.83;2.50;;;;;;;18.85;47.78;102055.88;5144392;27;20098;-59
2022/04/14 09:42:34;;;;;;;3.85;2.50;;;;;;;18.85;47.85;102055.88;5144165;27;20042;-59
2022/04/14 09:45:30;;;;;;;4.00;2.42;;;;;;;18.88;47.51;102068.22;5143761;27;20088;-60
2022/04/14 09:48:01;;;;;;;3.08;2.10;;;;;;;18.87;47.68;102064.69;5143955;27;20098;-59
2022/04/14 09:50:33;;;;;;;3.30;2.40;;;;;;;18.89;47.41;102060.00;5144290;27;20059;-59
2022/04/14 09:53:08;;;;;;;3.08;1.88;;;;;;;18.91;47.36;102060.72;5144257;27;20031;-60
2022/04/14 09:55:35;;;;;;;3.13;1.73;;;;;;;18.87;47.57;102056.59;5140257;27;20029;-59
2022/04/14 09:58:17;;;;;;;2.50;1.65;;;;;;;18.93;47.24;102057.88;5143315;27;20083;-60
2022/04/14 10:00:43;;;;;;;2.97;1.83;;;;;;;18.91;47.42;102057.19;5143295;28;20019;-59
2022/04/14 10:03:19;;;;;;;2.38;1.77;;;;;;;18.93;47.54;102064.13;5143821;28;20055;-57
2022/04/14 10:05:47;;;;;;;2.45;1.60;;;;;;;18.94;47.22;102071.19;5140793;28;20027;-60
2022/04/14 10:08:13;;;;;;;2.42;1.83;;;;;;;18.93;47.18;102069.50;5107818;28;20035;-59
2022/04/14 10:10:40;;;;;;;2.00;1.52;;;;;;;18.95;47.48;102069.38;5129072;28;20027;-59
2022/04/14 10:13:11;;;;;;;2.60;1.35;;;;;;;18.95;47.21;102069.38;5135533;28;20386;-59
2022/04/14 10:15:45;;;;;;;2.55;1.48;;;;;;;18.95;47.53;102070.22;5143778;28;20023;-59
2022/04/14 10:18:12;;;;;;;2.70;1.48;;;;;;;18.93;47.45;102072.19;5143719;28;20031;-59
2022/04/14 10:20:40;;;;;;;3.08;1.52;;;;;;;18.97;47.61;102072.78;5128431;28;20031;-59
2022/04/14 10:23:07;;;;;;;2.47;1.55;;;;;;;18.95;47.36;102069.38;5123167;28;20016;-60
2022/04/14 10:25:36;;;;;;;1.88;1.45;;;;;;;18.94;47.67;102076.59;5140548;28;20027;-59
2022/04/14 10:28:01;;;;;;;2.58;1.73;;;;;;;18.95;47.63;102069.38;5124114;27;20035;-59
2022/04/14 10:30:27;;;;;;;2.17;1.40;;;;;;;18.95;47.54;102072.06;5147047;27;20038;-60
2022/04/14 10:32:55;;;;;;;1.77;1.48;;;;;;;18.95;47.62;102075.63;5147847;27;20519;-60
2022/04/14 10:35:21;;;;;;;3.50;1.50;;;;;;;18.95;47.50;102069.38;5147987;27;20034;-60
2022/04/14 10:37:51;;;;;;;2.70;1.65;;;;;;;18.95;47.52;102075.63;5147919;27;20500;-60
2022/04/14 10:40:16;;;;;;;1.73;1.35;;;;;;;18.95;47.54;102075.63;5129105;27;20066;-60
2022/04/14 10:42:51;;;;;;;3.30;1.70;;;;;;;18.97;47.88;102084.41;5130301;27;20031;-59
2022/04/14 10:45:18;;;;;;;2.38;1.40;;;;;;;18.96;47.96;102081.84;5144635;27;20015;-59
2022/04/14 10:47:43;;;;;;;3.33;1.83;;;;;;;18.95;47.78;102091.78;5142621;27;20525;-59
2022/04/14 10:50:26;;;;;;;3.70;1.80;;;;;;;18.97;47.81;102084.41;5127039;27;20027;-59
2022/04/14 10:53:05;;;;;;;3.03;1.33;;;;;;;18.97;48.07;102075.47;5146051;27;20036;-59
2022/04/14 10:55:50;;;;;;;2.60;1.42;;;;;;;18.94;48.14;102083.81;5146833;27;20027;-60
2022/04/14 10:58:40;;;;;;;2.25;1.58;;;;;;;18.96;48.14;102082.72;5127787;27;20402;-59
2022/04/14 11:01:06;;;;;;;2.42;1.50;;;;;;;18.96;48.01;102087.25;5146668;27;20030;-59
2022/04/14 11:03:49;;;;;;;2.78;1.50;;;;;;;18.99;48.06;102081.59;5147522;27;20023;-60
2022/04/14 11:06:43;;;;;;;3.05;1.65;;;;;;;19.01;48.58;102078.75;5147035;27;20623;-59
2022/04/14 11:09:38;;;;;;;1.88;1.50;;;;;;;19.02;48.49;102070.50;5146999;27;20074;-59
2022/04/14 11:12:03;;;;;;;2.30;1.42;;;;;;;19.03;48.71;102077.63;5143891;27;20641;-59
2022/04/14 11:14:34;;;;;;;2.45;1.60;;;;;;;19.07;48.84;102086.25;5146852;27;20023;-59
2022/04/14 11:17:00;;;;;;;2.30;1.20;;;;;;;19.08;49.09;102077.19;5127959;27;20040;-59
2022/04/14 11:19:26;;;;;;;2.58;1.40;;;;;;;19.08;49.44;102079.88;5147363;27;20019;-59
2022/04/14 11:22:11;;;;;;;3.00;1.40;;;;;;;19.10;49.39;102078.72;5146810;27;20035;-59
2022/04/14 11:24:36;;;;;;;3.35;1.45;;;;;;;19.12;49.52;102084.84;5147404;27;20026;-59
2022/04/14 11:27:12;;;;;;;3.15;1.33;;;;;;;19.12;49.26;102074.06;5146332;27;20118;-59